createdAt,value
2023-05-13T00:02:15.382Z,5.47
2023-05-13T00:06:37.775Z,5.50
2023-05-13T00:11:00.108Z,4.63
2023-05-13T00:15:22.578Z,5.43
2023-05-13T00:19:44.544Z,4.65
2023-05-13T00:24:07.125Z,5.55
2023-05-13T00:28:28.958Z,4.90
2023-05-13T00:32:51.156Z,4.90
2023-05-13T00:37:14.317Z,4.45
2023-05-13T00:41:36.526Z,4.80
2023-05-13T00:45:59.947Z,5.45
2023-05-13T00:50:22.181Z,6.22
2023-05-13T00:54:44.432Z,5.75
2023-05-13T00:59:06.376Z,5.45
2023-05-13T01:03:42.813Z,6.30
2023-05-13T01:08:38.126Z,6.85
2023-05-13T01:13:04.676Z,6.18
2023-05-13T01:17:36.503Z,6.82
2023-05-13T01:21:58.429Z,7.03
2023-05-13T01:26:22.620Z,6.63
2023-05-13T01:30:47.817Z,6.68
2023-05-13T01:35:12.136Z,7.13
2023-05-13T01:39:39.253Z,5.90
2023-05-13T01:44:06.628Z,6.03
2023-05-13T01:48:29.285Z,7.85
2023-05-13T01:52:52.815Z,6.47
2023-05-13T01:57:15.077Z,5.82
2023-05-13T02:01:37.248Z,6.75
2023-05-13T02:05:59.379Z,6.60
2023-05-13T02:10:21.750Z,6.47
2023-05-13T02:14:44.237Z,7.65
2023-05-13T02:19:07.063Z,6.60
2023-05-13T02:23:29.574Z,6.05
2023-05-13T02:27:51.602Z,6.85
2023-05-13T02:32:13.557Z,8.15
2023-05-13T02:36:35.678Z,7.75
2023-05-13T02:41:01.717Z,7.13
2023-05-13T02:45:24.244Z,7.43
2023-05-13T02:49:50.959Z,8.27
2023-05-13T02:54:13.657Z,7.53
2023-05-13T02:58:36.406Z,7.43
2023-05-13T03:02:59.283Z,7.75
2023-05-13T03:07:21.617Z,8.05
2023-05-13T03:11:43.977Z,7.90
2023-05-13T03:16:05.900Z,8.10
2023-05-13T03:20:28.278Z,7.45
2023-05-13T03:24:51.840Z,7.88
2023-05-13T03:29:16.148Z,9.88
2023-05-13T03:33:38.855Z,8.13
2023-05-13T03:38:01.864Z,9.02
2023-05-13T03:42:24.846Z,8.02
2023-05-13T03:46:47.920Z,8.88
2023-05-13T03:51:10.575Z,9.32
2023-05-13T03:55:34.537Z,11.50
2023-05-13T03:59:56.641Z,9.70
2023-05-13T04:04:18.586Z,8.45
2023-05-13T04:08:41.199Z,7.97
2023-05-13T04:13:04.405Z,7.15
2023-05-13T04:17:26.263Z,6.30
2023-05-13T04:21:48.037Z,5.22
2023-05-13T04:26:11.603Z,3.92
2023-05-13T04:30:35.212Z,3.95
2023-05-13T04:34:57.318Z,3.92
2023-05-13T04:39:21.340Z,4.30
2023-05-13T04:43:43.476Z,5.88
2023-05-13T04:48:07.405Z,6.03
2023-05-13T04:52:30.840Z,3.80
2023-05-13T04:56:53.380Z,3.75
2023-05-13T05:01:16.101Z,3.20
2023-05-13T05:05:38.635Z,3.08
2023-05-13T05:10:02.581Z,2.80
2023-05-13T05:14:26.771Z,3.03
2023-05-13T05:18:49.870Z,3.13
2023-05-13T05:23:12.657Z,2.65
2023-05-13T05:27:35.017Z,2.80
2023-05-13T05:31:57.812Z,2.40
2023-05-13T05:36:21.508Z,2.95
2023-05-13T05:40:45.659Z,2.42
2023-05-13T05:45:08.634Z,2.53
2023-05-13T05:49:31.851Z,2.70
2023-05-13T05:53:54.656Z,2.40
2023-05-13T05:58:17.532Z,2.20
2023-05-13T06:02:41.057Z,2.22
2023-05-13T06:07:03.929Z,2.00
2023-05-13T06:11:25.858Z,2.50
2023-05-13T06:15:48.055Z,2.30
2023-05-13T06:20:10.980Z,2.10
2023-05-13T06:24:33.097Z,2.20
2023-05-13T06:28:54.965Z,2.40
2023-05-13T06:33:17.158Z,2.60
2023-05-13T06:37:39.278Z,2.50
2023-05-13T06:42:02.067Z,2.20
2023-05-13T06:46:28.488Z,2.35
2023-05-13T06:50:51.210Z,2.80
2023-05-13T06:55:13.438Z,2.72
2023-05-13T06:59:36.302Z,2.70
2023-05-13T07:03:58.562Z,2.45
2023-05-13T07:08:20.551Z,2.28
2023-05-13T07:12:42.491Z,2.53
2023-05-13T07:17:04.661Z,1.90
2023-05-13T07:21:26.952Z,2.47
2023-05-13T07:25:50.134Z,2.13
2023-05-13T07:30:13.008Z,2.03
2023-05-13T07:34:34.958Z,2.10
2023-05-13T07:38:56.995Z,1.80
2023-05-13T07:43:24.167Z,2.17
2023-05-13T07:47:46.084Z,2.00
2023-05-13T07:52:08.275Z,2.30
2023-05-13T07:56:30.764Z,1.88
2023-05-13T08:00:52.829Z,1.88
2023-05-13T08:05:15.062Z,2.08
2023-05-13T08:09:37.038Z,2.13
2023-05-13T08:13:58.878Z,2.15
2023-05-13T08:18:20.907Z,2.00
2023-05-13T08:22:43.854Z,1.90
2023-05-13T08:27:05.915Z,1.98
2023-05-13T08:31:27.996Z,1.73
2023-05-13T08:35:50.395Z,2.10
2023-05-13T08:40:12.774Z,1.88
2023-05-13T08:44:39.991Z,1.90
2023-05-13T08:49:02.546Z,2.50
2023-05-13T08:53:26.715Z,2.28
2023-05-13T08:57:48.937Z,2.10
2023-05-13T09:02:12.212Z,2.40
2023-05-13T09:06:34.641Z,2.17
2023-05-13T09:10:57.099Z,1.90
2023-05-13T09:15:22.966Z,2.00
2023-05-13T09:19:45.482Z,2.28
2023-05-13T09:24:11.415Z,2.13
2023-05-13T09:28:33.856Z,2.15
2023-05-13T09:33:13.989Z,2.20
2023-05-13T09:37:36.457Z,2.00
2023-05-13T09:41:58.960Z,2.00
2023-05-13T09:46:21.711Z,2.15
2023-05-13T09:50:51.610Z,2.38
2023-05-13T09:55:14.534Z,2.30
2023-05-13T09:59:36.597Z,2.30
2023-05-13T10:03:59.816Z,2.35
2023-05-13T10:08:23.997Z,2.45
2023-05-13T10:12:47.101Z,2.80
2023-05-13T10:17:10.004Z,3.20
2023-05-13T10:21:33.037Z,3.20
2023-05-13T10:25:58.200Z,3.25
2023-05-13T10:30:26.455Z,3.28
2023-05-13T10:34:49.295Z,2.75
2023-05-13T10:39:31.335Z,2.70
2023-05-13T10:44:00.364Z,3.25
2023-05-13T10:48:23.546Z,3.00
2023-05-13T10:52:49.577Z,3.92
2023-05-13T10:57:13.669Z,4.25
2023-05-13T11:01:44.411Z,4.53
2023-05-13T11:06:19.627Z,4.50
2023-05-13T11:10:42.131Z,3.85
2023-05-13T11:15:22.532Z,4.00
2023-05-13T11:19:51.088Z,3.17
2023-05-13T11:24:19.206Z,3.20
2023-05-13T11:29:06.755Z,2.97
2023-05-13T11:34:11.597Z,3.15
2023-05-13T11:38:34.716Z,2.90
2023-05-13T11:42:58.280Z,3.25
2023-05-13T11:47:27.715Z,3.40
2023-05-13T11:51:49.873Z,2.83
2023-05-13T11:56:13.118Z,3.20
2023-05-13T12:00:35.817Z,3.20
2023-05-13T12:05:04.559Z,3.45
2023-05-13T12:09:26.907Z,3.25
2023-05-13T12:13:49.084Z,3.85
2023-05-13T12:18:11.520Z,3.08
2023-05-13T12:22:35.215Z,3.13
2023-05-13T12:27:08.769Z,3.60
2023-05-13T12:31:32.916Z,3.95
2023-05-13T12:36:20.922Z,4.13
2023-05-13T12:40:44.038Z,4.00
2023-05-13T12:45:07.352Z,3.38
2023-05-13T12:49:29.464Z,3.90
2023-05-13T12:53:54.399Z,3.80
2023-05-13T12:58:16.382Z,3.42
2023-05-13T13:02:41.331Z,3.58
2023-05-13T13:07:03.877Z,3.63
2023-05-13T13:11:25.759Z,3.40
2023-05-13T13:15:47.957Z,3.17
2023-05-13T13:20:10.689Z,3.30
2023-05-13T13:24:32.681Z,2.35
2023-05-13T13:28:54.899Z,1.90
2023-05-13T13:33:17.640Z,1.77
2023-05-13T13:37:40.085Z,2.00
2023-05-13T13:42:04.861Z,2.22
2023-05-13T13:46:26.820Z,1.80
2023-05-13T13:50:50.557Z,1.88
2023-05-13T13:55:14.632Z,1.67
2023-05-13T13:59:36.677Z,1.83
2023-05-13T14:04:19.939Z,1.45
2023-05-13T14:08:42.055Z,1.65
2023-05-13T14:13:04.462Z,1.70
2023-05-13T14:17:26.443Z,1.80
2023-05-13T14:21:48.792Z,1.58
2023-05-13T14:26:15.867Z,1.90
2023-05-13T14:30:37.956Z,2.35
2023-05-13T14:34:59.977Z,2.42
2023-05-13T14:39:22.391Z,2.40
2023-05-13T14:43:44.257Z,2.50
2023-05-13T14:48:06.367Z,2.33
2023-05-13T14:52:28.278Z,2.47
2023-05-13T14:56:52.535Z,2.88
2023-05-13T15:01:14.945Z,2.10
2023-05-13T15:05:36.921Z,2.65
2023-05-13T15:09:58.794Z,2.53
2023-05-13T15:14:26.038Z,2.53
2023-05-13T15:18:48.473Z,2.15
2023-05-13T15:23:10.695Z,2.83
2023-05-13T15:27:33.012Z,2.70
2023-05-13T15:31:54.912Z,2.50
2023-05-13T15:36:16.794Z,2.30
2023-05-13T15:40:39.192Z,2.40
2023-05-13T15:45:01.677Z,2.33
2023-05-13T15:49:23.855Z,2.40
2023-05-13T15:53:45.785Z,2.17
2023-05-13T15:58:07.975Z,2.13
2023-05-13T16:02:37.208Z,2.30
2023-05-13T16:06:59.436Z,2.22
2023-05-13T16:11:21.722Z,2.40
2023-05-13T16:15:43.597Z,2.45
2023-05-13T16:20:06.543Z,2.53
2023-05-13T16:24:28.434Z,2.17
2023-05-13T16:28:50.737Z,2.55
2023-05-13T16:33:15.255Z,2.42
2023-05-13T16:37:37.621Z,2.75
2023-05-13T16:41:59.662Z,3.97
2023-05-13T16:46:21.378Z,2.83
2023-05-13T16:50:43.495Z,2.55
2023-05-13T16:55:06.667Z,2.38
2023-05-13T16:59:29.310Z,2.90
2023-05-13T17:03:51.468Z,3.75
2023-05-13T17:08:13.700Z,3.35
2023-05-13T17:12:35.781Z,3.30
2023-05-13T17:16:58.074Z,2.53
2023-05-13T17:21:20.135Z,2.95
2023-05-13T17:25:42.318Z,2.17
2023-05-13T17:30:04.615Z,3.20
2023-05-13T17:34:26.795Z,2.72
2023-05-13T17:38:50.002Z,2.78
2023-05-13T17:43:12.201Z,2.10
2023-05-13T17:47:34.209Z,2.45
2023-05-13T17:51:56.082Z,2.45
2023-05-13T17:56:18.102Z,2.72
2023-05-13T18:00:40.222Z,2.45
2023-05-13T18:05:02.928Z,2.08
2023-05-13T18:09:25.609Z,2.30
2023-05-13T18:13:47.845Z,2.35
2023-05-13T18:18:10.122Z,2.53
2023-05-13T18:22:32.564Z,2.30
2023-05-13T18:26:54.364Z,2.28
2023-05-13T18:31:16.703Z,2.53
2023-05-13T18:35:40.389Z,2.50
2023-05-13T18:40:03.195Z,2.33
2023-05-13T18:44:25.827Z,2.50
2023-05-13T18:48:47.956Z,2.47
2023-05-13T18:53:10.040Z,2.88
2023-05-13T18:57:32.258Z,2.72
2023-05-13T19:01:54.167Z,3.05
2023-05-13T19:06:16.304Z,2.80
2023-05-13T19:10:40.140Z,2.95
2023-05-13T19:15:02.642Z,3.40
2023-05-13T19:19:24.938Z,4.07
2023-05-13T19:23:46.826Z,14.15
2023-05-13T19:28:10.194Z,3.65
2023-05-13T19:32:32.157Z,3.42
2023-05-13T19:36:54.114Z,3.78
2023-05-13T19:41:16.295Z,3.55
2023-05-13T19:45:38.065Z,6.53
2023-05-13T19:50:00.273Z,4.55
2023-05-13T19:54:22.374Z,4.10
2023-05-13T19:58:44.262Z,3.45
2023-05-13T20:03:06.445Z,3.67
2023-05-13T20:07:29.013Z,3.38
2023-05-13T20:11:51.474Z,3.63
2023-05-13T20:16:14.173Z,3.92
2023-05-13T20:20:36.174Z,3.63
2023-05-13T20:24:58.194Z,3.25
2023-05-13T20:29:20.079Z,3.78
2023-05-13T20:33:42.386Z,4.40
2023-05-13T20:38:04.579Z,4.00
2023-05-13T20:42:27.459Z,3.90
2023-05-13T20:46:50.439Z,4.00
2023-05-13T20:51:15.801Z,4.13
2023-05-13T20:55:38.249Z,6.32
2023-05-13T21:00:00.059Z,6.60
2023-05-13T21:04:23.590Z,4.40
2023-05-13T21:08:47.888Z,5.13
2023-05-13T21:13:10.178Z,4.50
2023-05-13T21:17:32.641Z,5.15
2023-05-13T21:21:54.400Z,5.20
2023-05-13T21:26:17.087Z,5.53
2023-05-13T21:30:39.342Z,5.82
2023-05-13T21:35:02.168Z,6.15
2023-05-13T21:39:24.179Z,6.05
2023-05-13T21:43:46.724Z,6.80
2023-05-13T21:48:08.682Z,6.20
2023-05-13T21:52:31.253Z,6.32
2023-05-13T21:56:53.293Z,5.90
2023-05-13T22:01:15.471Z,7.97
2023-05-13T22:05:43.775Z,8.38
2023-05-13T22:10:07.032Z,9.27
2023-05-13T22:14:28.960Z,9.30
2023-05-13T22:18:51.284Z,10.05
2023-05-13T22:23:13.729Z,11.15
2023-05-13T22:27:36.017Z,11.25
2023-05-13T22:31:58.425Z,10.57
2023-05-13T22:36:20.864Z,9.73
2023-05-13T22:40:42.969Z,10.13
2023-05-13T22:45:05.621Z,9.07
2023-05-13T22:49:27.728Z,10.55
2023-05-13T22:53:49.738Z,8.82
2023-05-13T22:58:12.138Z,11.90
2023-05-13T23:02:34.521Z,10.05
2023-05-13T23:06:56.618Z,9.85
2023-05-13T23:11:18.598Z,9.35
2023-05-13T23:15:40.588Z,9.80
2023-05-13T23:20:02.841Z,10.00
2023-05-13T23:24:24.935Z,10.82
2023-05-13T23:28:47.137Z,10.32
2023-05-13T23:33:09.774Z,9.65
2023-05-13T23:37:31.741Z,10.50
2023-05-13T23:41:53.934Z,10.32
2023-05-13T23:46:15.961Z,10.25
2023-05-13T23:50:38.094Z,12.93
2023-05-13T23:55:00.996Z,12.70
2023-05-13T23:59:22.939Z,12.52
